Sheridan, WY

8:34 PM MST on December 27, 2014 (GMT -0700)
North Airport Area | Change Station
CLOSE
Current Station
Personal Weather Station
Location: Sheridan, WY
Elevation: 3917 ft
Nearby Weather Stations
Active Advisory: Winter Weather Advisory Active Notice: Public Information Statement

Elev 3917 ft 44.78 °N, 106.97 °W | Updated 12 minutes ago

Overcast
Overcast
10.9 °F
Feels Like 11 °F
N
0.0
Wind Variable Wind from WNW

Today
High -- | Low -- °F
--% Chance of Precip.
Yesterday
High -- | Low -- °F
Precip. -- in
7:44 AM 4:33 PM
Waxing Crescent, 43% visible
Pressure 30.21 in
Visibility 10.0 miles
Clouds Overcast 7000 ft
Windchill 11 °F
Dew Point 6 °F
Humidity 81%
Rainfall 0.00 in
Snow Depth Not available.
UV 0 out of 12
Pollen .10 out of 12
Air Quality Not available.
Flu Activity Not available.
METAR KSHR 280253Z AUTO 00000KT 10SM OVC070 M09/M15 A2996 RMK AO2 SLP228 T10941150 56012

More Conditions Fewer Conditions

Pressure 30.21 in
Visibility 10.0 miles
Clouds Overcast 7000 ft
Windchill 11 °F
Dew Point 6 °F
Humidity 81%
Rainfall 0.00 in
Snow Depth Not available.
UV 0 out of 12
Pollen .10 out of 12
Air Quality Not available.
Flu Activity Not available.
METAR KSHR 280253Z AUTO 00000KT 10SM OVC070 M09/M15 A2996 RMK AO2 SLP228 T10941150 56012

More Conditions Fewer Conditions

10-Day Weather Forecast

Almanac

Astronomy

Dec. 27, 2014 Rise Set
Actual Time
Civil Twilight
Nautical Twilight
Astronomical Twilight
Moon
Length of Visible Light
Length of Day
Tomorrow will be .
, % of the Moon is Illuminated

Today's Extremes

State Highs State Lows

Community

WunderPhotos

Upload Photos

1,781,180 photos uploaded!

WunderBlogs® & News

Nearby

Air Quality

  Air Quality AQ Index Pollutant
Not available.

Snow Depth

Station Depth Elevation

Earthquake Activity

City Distance Mag. Time & Date
Minimum magnitude displayed is 2.5.

Coastal Water Temperatures

Place Temperature

Nearby Weather Stations